createdAt,value
2023-03-20T00:00:56.675Z,1.00
2023-03-20T00:06:00.793Z,1.00
2023-03-20T00:11:03.483Z,1.00
2023-03-20T00:16:07.477Z,21.70
2023-03-20T00:21:18.060Z,1.00
2023-03-20T00:26:21.798Z,1.00
2023-03-20T00:31:27.378Z,1.00
2023-03-20T00:36:32.024Z,1.00
2023-03-20T00:41:41.710Z,1.00
2023-03-20T00:46:47.637Z,1.00
2023-03-20T00:51:52.553Z,1.00
2023-03-20T00:56:59.240Z,1.00
2023-03-20T01:02:03.954Z,1.00
2023-03-20T01:07:13.348Z,1.00
2023-03-20T01:12:17.557Z,1.00
2023-03-20T01:17:23.390Z,1.00
2023-03-20T01:22:27.932Z,1.00
2023-03-20T01:27:32.088Z,1.00
2023-03-20T01:32:35.563Z,1.00
2023-03-20T01:37:40.264Z,1.00
2023-03-20T01:42:43.119Z,1.00
2023-03-20T01:47:46.028Z,1.00
2023-03-20T01:52:54.194Z,1.00
2023-03-20T01:57:59.386Z,1.00
2023-03-20T02:03:02.710Z,1.00
2023-03-20T02:08:18.616Z,11.60
2023-03-20T02:13:21.882Z,36.10
2023-03-20T02:18:25.245Z,13.00
2023-03-20T02:24:08.898Z,18.10
2023-03-20T02:29:50.653Z,59.20
2023-03-20T02:35:27.503Z,1.00
2023-03-20T02:40:38.485Z,1.00
2023-03-20T02:45:49.207Z,1.00
2023-03-20T02:51:00.003Z,1.00
2023-03-20T02:56:14.906Z,1.00
2023-03-20T03:01:23.766Z,1.00
2023-03-20T03:06:31.885Z,1.00
2023-03-20T03:11:40.795Z,3.40
2023-03-20T03:16:46.262Z,1.00
2023-03-20T03:21:50.690Z,1.00
2023-03-20T03:26:55.293Z,1.00
2023-03-20T03:31:58.679Z,1.00
2023-03-20T03:37:06.839Z,1.00
2023-03-20T03:42:18.060Z,1.00
2023-03-20T03:47:25.391Z,29.40
2023-03-20T03:52:32.365Z,43.40
2023-03-20T03:57:41.224Z,86.60
2023-03-20T04:02:44.810Z,99.90
2023-03-20T04:07:48.283Z,99.90
2023-03-20T04:12:53.596Z,99.90
2023-03-20T04:17:56.487Z,99.90
2023-03-20T04:22:59.166Z,99.90
2023-03-20T04:28:03.413Z,99.90
2023-03-20T04:33:07.251Z,99.90
2023-03-20T04:38:10.011Z,99.90
2023-03-20T04:43:14.372Z,99.90
2023-03-20T04:48:19.182Z,99.90
2023-03-20T04:53:21.875Z,99.90
2023-03-20T04:58:25.972Z,99.90
2023-03-20T05:03:28.639Z,99.90
2023-03-20T05:08:31.387Z,99.90
2023-03-20T05:13:35.807Z,99.90
2023-03-20T05:18:38.465Z,99.90
2023-03-20T05:23:41.168Z,99.90
2023-03-20T05:28:45.230Z,99.90
2023-03-20T05:33:47.918Z,99.90
2023-03-20T05:38:50.569Z,99.90
2023-03-20T05:43:54.661Z,99.90
2023-03-20T05:48:57.354Z,99.90
2023-03-20T05:54:00.021Z,99.90
2023-03-20T05:59:04.030Z,99.90
2023-03-20T06:04:08.365Z,99.90
2023-03-20T06:09:11.068Z,44.30
2023-03-20T06:14:15.265Z,11.90
2023-03-20T06:19:18.018Z,1.00
2023-03-20T06:24:20.876Z,1.00
2023-03-20T06:29:24.857Z,1.00
2023-03-20T06:34:27.758Z,1.00
2023-03-20T06:39:30.611Z,1.00
2023-03-20T06:44:34.611Z,1.00
2023-03-20T06:49:37.291Z,1.00
2023-03-20T06:54:39.963Z,99.90
2023-03-20T06:59:44.024Z,99.90
2023-03-20T07:04:47.043Z,99.90
2023-03-20T07:09:50.241Z,1.00
2023-03-20T07:14:54.223Z,1.00
2023-03-20T07:19:56.930Z,99.90
2023-03-20T07:24:59.874Z,99.90
2023-03-20T07:30:04.546Z,99.90
2023-03-20T07:35:09.218Z,1.00
2023-03-20T07:40:12.770Z,99.90
2023-03-20T07:45:18.292Z,99.90
2023-03-20T07:50:21.241Z,1.00
2023-03-20T07:55:23.894Z,1.00
2023-03-20T08:00:28.476Z,1.00
2023-03-20T08:05:31.206Z,1.00
2023-03-20T08:10:34.001Z,99.90
2023-03-20T08:15:38.522Z,1.00
2023-03-20T08:20:41.591Z,1.00
2023-03-20T08:25:49.139Z,99.90
2023-03-20T08:30:53.479Z,1.00
2023-03-20T08:35:57.570Z,99.90
2023-03-20T08:41:00.718Z,99.90
2023-03-20T08:46:05.465Z,99.90
2023-03-20T08:51:08.804Z,99.90
2023-03-20T08:56:12.305Z,1.00
2023-03-20T09:01:18.041Z,1.00
2023-03-20T09:06:21.464Z,1.00
2023-03-20T09:11:24.725Z,1.00
2023-03-20T09:16:30.147Z,1.00
2023-03-20T09:21:48.442Z,1.00
2023-03-20T09:26:56.701Z,1.00
2023-03-20T09:32:07.711Z,99.90
2023-03-20T09:37:15.779Z,99.90
2023-03-20T09:42:33.911Z,99.90
2023-03-20T09:48:06.588Z,1.00
2023-03-20T09:53:27.416Z,1.00
2023-03-20T09:58:46.388Z,1.00
2023-03-20T10:10:02.010Z,99.90
2023-03-20T10:21:28.688Z,1.00
2023-03-20T10:26:50.139Z,99.90
2023-03-20T10:32:19.452Z,1.00
2023-03-20T10:38:04.344Z,1.00
2023-03-20T10:43:43.325Z,1.00
2023-03-20T10:48:56.853Z,1.00
2023-03-20T10:54:41.998Z,1.00
2023-03-20T11:00:09.539Z,1.00
2023-03-20T11:05:39.027Z,1.00
2023-03-20T11:11:03.476Z,1.00
2023-03-20T11:16:24.142Z,99.90
2023-03-20T11:21:35.390Z,99.90
2023-03-20T11:26:51.900Z,1.00
2023-03-20T11:32:09.092Z,1.00
2023-03-20T11:37:25.891Z,1.00
2023-03-20T11:42:46.841Z,1.00
2023-03-20T11:47:58.638Z,1.00
2023-03-20T11:53:32.645Z,1.00
2023-03-20T12:04:40.410Z,1.00
2023-03-20T12:10:01.730Z,99.90
2023-03-20T12:15:47.523Z,1.00
2023-03-20T12:21:05.799Z,99.90
2023-03-20T12:26:29.485Z,16.00
2023-03-20T12:31:48.241Z,1.00
2023-03-20T12:36:58.642Z,1.00
2023-03-20T12:42:29.928Z,99.90
2023-03-20T12:48:07.354Z,99.90
2023-03-20T12:54:09.105Z,99.90
2023-03-20T12:59:31.384Z,1.00
2023-03-20T13:05:03.756Z,99.90
2023-03-20T13:10:26.750Z,99.90
2023-03-20T13:16:06.884Z,99.90
2023-03-20T13:21:29.938Z,1.00
2023-03-20T13:26:56.131Z,99.90
2023-03-20T13:32:16.759Z,1.00
2023-03-20T13:37:34.691Z,1.00
2023-03-20T13:42:44.124Z,1.00
2023-03-20T13:47:49.773Z,1.00
2023-03-20T13:53:03.216Z,99.90
2023-03-20T13:58:20.230Z,1.00
2023-03-20T14:03:28.337Z,99.90
2023-03-20T14:09:10.466Z,99.90
2023-03-20T14:15:10.842Z,99.90
2023-03-20T14:20:27.853Z,1.00
2023-03-20T14:25:52.864Z,99.90
2023-03-20T14:31:33.953Z,1.00
2023-03-20T14:37:26.500Z,1.00
2023-03-20T14:43:06.850Z,99.90
2023-03-20T14:48:31.532Z,99.90
2023-03-20T14:53:43.398Z,99.90
2023-03-20T14:59:02.612Z,1.00
2023-03-20T15:04:11.495Z,1.00
2023-03-20T15:09:14.542Z,1.10
2023-03-20T15:14:45.748Z,99.90
2023-03-20T15:20:11.979Z,99.90
2023-03-20T15:25:46.123Z,99.90
2023-03-20T15:30:58.942Z,99.90
2023-03-20T15:36:26.796Z,99.90
2023-03-20T15:41:42.738Z,99.90
2023-03-20T15:47:05.693Z,99.90
2023-03-20T15:52:24.271Z,99.90
2023-03-20T15:57:41.358Z,99.90
2023-03-20T16:02:53.634Z,99.90
2023-03-20T16:08:21.744Z,99.90
2023-03-20T16:13:30.340Z,99.90
2023-03-20T16:30:55.391Z,99.90
2023-03-20T16:36:14.907Z,99.90
2023-03-20T16:41:32.030Z,99.90
2023-03-20T16:46:53.143Z,99.90
2023-03-20T16:52:13.099Z,99.90
2023-03-20T16:57:23.562Z,99.90
2023-03-20T17:02:33.574Z,99.90
2023-03-20T17:07:42.064Z,99.90
2023-03-20T17:12:46.619Z,99.90
2023-03-20T17:17:52.202Z,99.90
2023-03-20T17:22:56.329Z,99.90
2023-03-20T17:27:59.002Z,99.90
2023-03-20T17:33:01.915Z,99.90
2023-03-20T17:38:06.009Z,99.90
2023-03-20T17:43:11.593Z,99.90
2023-03-20T17:48:16.657Z,99.90
2023-03-20T17:53:24.023Z,99.90
2023-03-20T17:58:26.745Z,99.90
2023-03-20T18:03:29.508Z,99.90
2023-03-20T18:08:33.813Z,99.90
2023-03-20T18:13:38.075Z,99.90
2023-03-20T18:18:40.987Z,99.90
2023-03-20T18:23:45.229Z,99.90
2023-03-20T18:28:48.707Z,99.90
2023-03-20T18:33:53.365Z,99.90
2023-03-20T18:38:57.355Z,99.90
2023-03-20T18:44:00.356Z,99.90
2023-03-20T18:49:03.082Z,48.00
2023-03-20T18:54:07.023Z,16.20
2023-03-20T18:59:13.601Z,99.90
2023-03-20T19:04:16.912Z,99.90
2023-03-20T19:09:26.142Z,99.90
2023-03-20T19:14:33.332Z,99.90
2023-03-20T19:19:36.147Z,99.90
2023-03-20T19:24:40.826Z,99.90
2023-03-20T19:29:46.827Z,99.90
2023-03-20T19:35:40.953Z,99.90
2023-03-20T19:40:25.332Z,99.90
2023-03-20T19:45:33.869Z,99.90
2023-03-20T19:50:41.398Z,99.90
2023-03-20T19:55:47.150Z,99.90
2023-03-20T20:00:57.763Z,99.90
2023-03-20T20:06:04.724Z,99.90
2023-03-20T20:11:13.217Z,99.90
2023-03-20T20:16:17.131Z,99.90
2023-03-20T20:22:10.145Z,99.90
2023-03-20T20:26:55.329Z,99.90
2023-03-20T20:32:01.831Z,99.90
2023-03-20T20:42:33.652Z,99.90
2023-03-20T20:47:37.338Z,99.90
2023-03-20T20:52:44.099Z,99.90
2023-03-20T20:57:52.600Z,99.90
2023-03-20T21:02:56.579Z,99.90
2023-03-20T21:08:01.458Z,99.90
2023-03-20T21:13:08.514Z,99.90
2023-03-20T21:18:11.871Z,99.90
2023-03-20T21:23:17.542Z,99.90
2023-03-20T21:28:21.707Z,99.90
2023-03-20T21:33:25.346Z,99.90
2023-03-20T21:43:52.314Z,99.90
2023-03-20T21:55:00.650Z,99.90
2023-03-20T22:22:04.116Z,99.90
2023-03-20T22:32:44.210Z,99.90
2023-03-20T22:38:02.506Z,99.90
2023-03-20T22:43:15.085Z,99.90
2023-03-20T22:48:12.727Z,99.90
2023-03-20T22:53:15.960Z,99.90
2023-03-20T22:58:18.676Z,99.90
2023-03-20T23:03:39.888Z,99.90
2023-03-20T23:08:52.028Z,99.90
2023-03-20T23:13:57.311Z,99.90
2023-03-20T23:19:01.320Z,99.90
2023-03-20T23:24:03.978Z,99.90
2023-03-20T23:29:06.731Z,99.90
2023-03-20T23:34:11.069Z,99.90
2023-03-20T23:39:15.293Z,99.90
2023-03-20T23:44:18.015Z,99.90
2023-03-20T23:49:22.325Z,99.90
2023-03-20T23:54:25.236Z,99.90
2023-03-20T23:59:27.929Z,99.90
